Time;durP1;ratioP1;P1;durP2;ratioP2;P2;SDS_P1;SDS_P2;PMS_P1;PMS_P2;Temp;Humidity;BMP_temperature;BMP_pressure;BME280_temperature;BME280_humidity;BME280_pressure;Samples;Min_cycle;Max_cycle;Signal;HPM_P1;HPM_P2
2021/10/10 00:04:27;;;;;;;20.52;11.25;;;;;;;;;;10283493;28;20072;-61
2021/10/10 00:09:25;;;;;;;20.98;12.70;;;;;;;;;;10286763;28;20069;-61
2021/10/10 00:14:25;;;;;;;31.52;15.30;;;;;;;;;;10284888;28;20522;-62
2021/10/10 00:19:23;;;;;;;36.15;17.38;;;;;;;;;;10282739;28;20057;-62
2021/10/10 00:24:21;;;;;;;29.95;15.85;;;;;;;;;;10281955;28;20068;-61
2021/10/10 00:29:20;;;;;;;18.65;10.82;;;;;;;;;;10285336;28;20076;-62
2021/10/10 00:34:19;;;;;;;22.67;11.07;;;;;;;;;;10280085;28;20577;-61
2021/10/10 00:39:18;;;;;;;24.17;11.93;;;;;;;;;;10281262;28;20099;-60
2021/10/10 00:44:16;;;;;;;26.77;14.40;;;;;;;;;;10296012;28;20075;-62
2021/10/10 00:49:14;;;;;;;19.30;10.82;;;;;;;;;;10290502;28;20072;-62
2021/10/10 00:54:14;;;;;;;23.33;12.68;;;;;;;;;;10283701;28;20099;-62
2021/10/10 00:59:13;;;;;;;20.35;10.32;;;;;;;;;;10278957;28;20061;-61
2021/10/10 01:04:13;;;;;;;22.33;9.25;;;;;;;;;;10280981;28;20065;-62
2021/10/10 01:09:12;;;;;;;19.35;10.75;;;;;;;;;;10280222;28;20084;-62
2021/10/10 01:14:12;;;;;;;25.13;9.75;;;;;;;;;;10284253;28;20075;-62
2021/10/10 01:19:10;;;;;;;25.27;10.85;;;;;;;;;;10286905;28;20521;-62
2021/10/10 01:24:10;;;;;;;14.68;10.48;;;;;;;;;;10278097;28;20063;-62
2021/10/10 01:29:08;;;;;;;24.25;11.60;;;;;;;;;;10292848;28;20104;-62
2021/10/10 01:34:06;;;;;;;27.23;9.88;;;;;;;;;;10294920;28;20615;-62
2021/10/10 01:39:05;;;;;;;24.45;10.82;;;;;;;;;;10289680;28;20573;-62
2021/10/10 01:44:05;;;;;;;19.20;9.40;;;;;;;;;;10288178;28;20064;-62
2021/10/10 01:49:03;;;;;;;24.48;10.00;;;;;;;;;;10289088;28;20073;-61
2021/10/10 01:54:01;;;;;;;19.63;9.60;;;;;;;;;;10293103;28;20079;-62
2021/10/10 01:59:00;;;;;;;16.05;9.27;;;;;;;;;;10298885;28;20098;-62
2021/10/10 02:03:59;;;;;;;14.80;8.98;;;;;;;;;;10292505;28;20064;-62
2021/10/10 02:08:58;;;;;;;18.10;8.90;;;;;;;;;;10286665;28;20099;-62
2021/10/10 02:13:56;;;;;;;20.15;9.32;;;;;;;;;;10300196;28;20071;-62
2021/10/10 02:18:54;;;;;;;16.08;9.13;;;;;;;;;;10294692;28;20338;-62
2021/10/10 02:23:54;;;;;;;17.63;8.50;;;;;;;;;;10283267;28;20068;-62
2021/10/10 02:28:52;;;;;;;21.92;8.85;;;;;;;;;;10289580;28;20086;-62
2021/10/10 02:33:51;;;;;;;24.58;10.82;;;;;;;;;;10287479;28;20073;-62
2021/10/10 02:38:49;;;;;;;16.95;8.43;;;;;;;;;;10279195;28;20076;-62
2021/10/10 02:43:49;;;;;;;20.73;9.05;;;;;;;;;;10289785;28;20068;-62
2021/10/10 02:48:47;;;;;;;30.10;9.93;;;;;;;;;;10277479;28;20509;-62
2021/10/10 02:53:45;;;;;;;17.17;8.82;;;;;;;;;;10301840;28;20083;-63
2021/10/10 02:58:43;;;;;;;22.10;9.55;;;;;;;;;;10287933;28;20122;-63
2021/10/10 03:03:43;;;;;;;24.05;9.98;;;;;;;;;;10275551;28;20095;-62
2021/10/10 03:08:41;;;;;;;22.70;9.95;;;;;;;;;;10286426;28;20119;-62
2021/10/10 03:13:40;;;;;;;25.45;9.77;;;;;;;;;;10281957;28;20080;-63
2021/10/10 03:18:38;;;;;;;29.38;10.45;;;;;;;;;;10274825;28;20485;-62
2021/10/10 03:23:38;;;;;;;21.92;9.45;;;;;;;;;;10275895;28;20060;-62
2021/10/10 03:28:36;;;;;;;23.55;10.10;;;;;;;;;;10279233;28;20071;-62
2021/10/10 03:33:34;;;;;;;21.75;10.18;;;;;;;;;;10283962;28;20502;-62
2021/10/10 03:38:33;;;;;;;22.33;10.80;;;;;;;;;;10281648;28;20078;-62
2021/10/10 03:43:32;;;;;;;15.48;9.65;;;;;;;;;;10288183;28;20065;-62
2021/10/10 03:48:31;;;;;;;15.68;9.27;;;;;;;;;;10281530;28;20076;-62
2021/10/10 03:53:37;;;;;;;24.00;10.90;;;;;;;;;;10279889;28;20092;-62
2021/10/10 03:58:39;;;;;;;16.13;9.02;;;;;;;;;;10274464;28;20533;-62
2021/10/10 04:03:37;;;;;;;19.92;9.05;;;;;;;;;;10278589;28;20068;-61
2021/10/10 04:08:41;;;;;;;19.58;11.65;;;;;;;;;;10285888;28;20540;-62
2021/10/10 04:13:41;;;;;;;20.70;9.43;;;;;;;;;;10287331;28;20080;-62
2021/10/10 04:18:39;;;;;;;22.25;10.05;;;;;;;;;;10285284;28;20080;-62
2021/10/10 04:23:37;;;;;;;20.02;11.35;;;;;;;;;;10286842;28;20080;-62
2021/10/10 04:28:36;;;;;;;18.25;8.32;;;;;;;;;;10288238;28;20060;-62
2021/10/10 04:33:35;;;;;;;27.42;11.52;;;;;;;;;;10289293;28;20041;-62
2021/10/10 04:38:34;;;;;;;20.35;10.38;;;;;;;;;;10278328;28;20084;-62
2021/10/10 04:43:32;;;;;;;19.48;9.32;;;;;;;;;;10276142;28;20457;-62
2021/10/10 04:48:30;;;;;;;26.02;9.00;;;;;;;;;;10299194;28;20080;-61
2021/10/10 04:53:30;;;;;;;24.63;10.63;;;;;;;;;;10279986;28;20076;-61
2021/10/10 04:58:28;;;;;;;19.83;9.25;;;;;;;;;;10280523;28;20071;-61
2021/10/10 05:03:27;;;;;;;25.52;9.82;;;;;;;;;;10284102;28;20073;-61
2021/10/10 05:08:25;;;;;;;32.15;10.80;;;;;;;;;;10289256;28;20076;-62
2021/10/10 05:13:25;;;;;;;23.00;10.80;;;;;;;;;;10280021;28;20087;-62
2021/10/10 05:18:23;;;;;;;19.48;9.85;;;;;;;;;;10284505;28;20475;-61
2021/10/10 05:23:21;;;;;;;21.20;9.88;;;;;;;;;;10285606;28;20430;-61
2021/10/10 05:28:19;;;;;;;27.30;10.27;;;;;;;;;;10279594;28;20511;-62
2021/10/10 05:33:19;;;;;;;20.98;11.60;;;;;;;;;;10291757;28;20083;-62
2021/10/10 05:38:17;;;;;;;22.33;12.07;;;;;;;;;;10317540;28;20068;-62
2021/10/10 05:43:16;;;;;;;22.38;13.20;;;;;;;;;;10296135;28;20551;-62
2021/10/10 05:48:14;;;;;;;18.98;10.23;;;;;;;;;;10281054;28;20096;-61
2021/10/10 05:53:14;;;;;;;18.00;10.68;;;;;;;;;;10280107;28;20084;-62
2021/10/10 05:58:17;;;;;;;21.83;10.63;;;;;;;;;;10289097;28;20072;-62
2021/10/10 06:03:16;;;;;;;21.77;10.45;;;;;;;;;;10286465;28;20060;-62
2021/10/10 06:08:15;;;;;;;20.10;10.57;;;;;;;;;;10275415;28;20076;-61
2021/10/10 06:13:14;;;;;;;17.80;10.32;;;;;;;;;;10295419;28;20079;-62
2021/10/10 06:18:12;;;;;;;25.13;9.38;;;;;;;;;;10297388;28;20076;-61
2021/10/10 06:23:10;;;;;;;18.77;9.80;;;;;;;;;;10283715;28;20072;-61
2021/10/10 06:28:10;;;;;;;19.95;8.57;;;;;;;;;;10292119;28;20079;-61
2021/10/10 06:33:09;;;;;;;21.45;9.85;;;;;;;;;;10281663;28;20120;-61
2021/10/10 06:38:08;;;;;;;16.27;8.38;;;;;;;;;;10287270;28;20485;-62
2021/10/10 06:43:07;;;;;;;14.88;9.38;;;;;;;;;;10297966;28;20075;-61
2021/10/10 06:48:06;;;;;;;21.60;12.70;;;;;;;;;;10286984;28;20069;-62
2021/10/10 06:53:05;;;;;;;24.50;13.52;;;;;;;;;;10286822;28;20494;-62
2021/10/10 06:58:03;;;;;;;23.60;11.63;;;;;;;;;;10290060;28;20064;-62
2021/10/10 07:03:02;;;;;;;30.05;16.63;;;;;;;;;;10281189;28;20466;-62
2021/10/10 07:08:02;;;;;;;30.88;17.67;;;;;;;;;;10277007;28;20084;-62
2021/10/10 07:13:01;;;;;;;22.38;12.48;;;;;;;;;;10262996;28;20135;-63
2021/10/10 07:18:01;;;;;;;20.88;10.57;;;;;;;;;;10270701;28;20135;-62
2021/10/10 07:23:10;;;;;;;37.85;13.82;;;;;;;;;;10290040;28;20075;-62
2021/10/10 07:28:10;;;;;;;26.45;10.82;;;;;;;;;;10277486;28;20088;-62
2021/10/10 07:33:08;;;;;;;29.90;12.23;;;;;;;;;;10282641;28;20065;-60
2021/10/10 07:38:07;;;;;;;22.55;12.10;;;;;;;;;;10277439;28;20494;-61
2021/10/10 07:43:06;;;;;;;18.90;10.73;;;;;;;;;;10282422;28;20088;-63
2021/10/10 07:48:06;;;;;;;17.83;10.07;;;;;;;;;;10280996;28;20159;-63
2021/10/10 07:53:08;;;;;;;17.77;10.05;;;;;;;;;;10282403;28;20512;-62
2021/10/10 07:58:07;;;;;;;22.23;9.45;;;;;;;;;;10285706;28;20063;-61
2021/10/10 08:03:07;;;;;;;45.80;22.27;;;;;;;;;;10273254;28;20061;-62
2021/10/10 08:08:05;;;;;;;60.78;29.25;;;;;;;;;;10272873;28;20095;-63
2021/10/10 08:13:05;;;;;;;51.55;28.60;;;;;;;;;;10276035;28;20069;-62
2021/10/10 08:18:03;;;;;;;23.52;10.20;;;;;;;;;;10284238;28;20533;-63
2021/10/10 08:23:04;;;;;;;21.48;12.35;;;;;;;;;;10278292;28;20516;-62
2021/10/10 08:28:02;;;;;;;24.05;11.60;;;;;;;;;;10278282;28;20077;-63
2021/10/10 08:33:01;;;;;;;21.95;15.10;;;;;;;;;;10279922;28;20494;-63
2021/10/10 08:38:01;;;;;;;30.52;16.83;;;;;;;;;;10286966;28;20067;-63
2021/10/10 08:43:05;;;;;;;17.27;11.43;;;;;;;;;;10279499;28;20068;-63
2021/10/10 08:48:04;;;;;;;25.63;13.85;;;;;;;;;;10283275;28;20052;-63
2021/10/10 08:53:02;;;;;;;25.30;12.88;;;;;;;;;;10282275;28;20060;-63
2021/10/10 08:58:07;;;;;;;17.38;10.93;;;;;;;;;;10281061;28;20064;-62
2021/10/10 09:03:10;;;;;;;31.35;13.40;;;;;;;;;;10287603;28;20080;-64
2021/10/10 09:08:19;;;;;;;23.58;13.90;;;;;;;;;;10273216;28;20072;-65
2021/10/10 09:13:23;;;;;;;41.92;30.85;;;;;;;;;;10277314;28;20442;-64
2021/10/10 09:18:31;;;;;;;46.70;26.92;;;;;;;;;;10277458;28;20461;-64
2021/10/10 09:23:30;;;;;;;50.08;24.42;;;;;;;;;;10287024;28;20087;-65
2021/10/10 09:28:31;;;;;;;84.03;49.72;;;;;;;;;;10282960;28;20075;-65
2021/10/10 09:33:39;;;;;;;42.70;24.42;;;;;;;;;;10288234;28;20080;-65
2021/10/10 09:38:46;;;;;;;30.05;18.95;;;;;;;;;;10292093;28;20095;-65
2021/10/10 09:44:06;;;;;;;29.38;16.33;;;;;;;;;;10278705;28;20072;-64
2021/10/10 09:49:20;;;;;;;25.95;15.63;;;;;;;;;;10278427;28;20072;-65
2021/10/10 09:54:19;;;;;;;24.75;12.98;;;;;;;;;;10278311;28;20083;-64
2021/10/10 09:59:28;;;;;;;36.17;22.70;;;;;;;;;;10278006;28;20176;-65
2021/10/10 10:04:27;;;;;;;34.03;21.38;;;;;;;;;;10278030;28;20529;-65
2021/10/10 10:09:25;;;;;;;37.70;20.42;;;;;;;;;;10276886;28;20178;-65
2021/10/10 10:14:24;;;;;;;17.88;12.40;;;;;;;;;;10277377;28;20048;-65
2021/10/10 10:19:26;;;;;;;28.05;15.25;;;;;;;;;;10277385;28;20089;-65
2021/10/10 10:24:25;;;;;;;33.83;20.70;;;;;;;;;;10277251;28;20069;-65
2021/10/10 10:29:25;;;;;;;32.50;18.58;;;;;;;;;;10276957;28;20080;-65
2021/10/10 10:34:26;;;;;;;31.27;15.60;;;;;;;;;;10276327;28;20478;-65
2021/10/10 10:39:34;;;;;;;72.47;44.30;;;;;;;;;;10298769;28;20076;-65
2021/10/10 10:44:53;;;;;;;49.08;32.35;;;;;;;;;;10295457;28;20080;-65
2021/10/10 10:50:01;;;;;;;34.42;18.38;;;;;;;;;;10284388;28;20064;-63
2021/10/10 10:55:14;;;;;;;22.63;11.23;;;;;;;;;;10278682;28;20498;-64
2021/10/10 11:00:14;;;;;;;26.20;13.60;;;;;;;;;;10277388;28;20072;-65
2021/10/10 11:05:13;;;;;;;29.52;17.17;;;;;;;;;;10280416;28;20144;-64
2021/10/10 11:10:16;;;;;;;40.72;22.67;;;;;;;;;;10275126;28;20076;-65
2021/10/10 11:15:14;;;;;;;31.80;15.25;;;;;;;;;;10279786;28;20091;-65
2021/10/10 11:20:14;;;;;;;32.90;19.67;;;;;;;;;;10291648;28;20073;-64
2021/10/10 11:25:13;;;;;;;97.80;64.90;;;;;;;;;;10276876;28;20060;-65
2021/10/10 11:30:13;;;;;;;47.90;29.58;;;;;;;;;;10275151;28;20072;-64
2021/10/10 11:35:11;;;;;;;30.38;18.17;;;;;;;;;;10271713;28;20447;-64
2021/10/10 11:40:11;;;;;;;30.75;14.40;;;;;;;;;;10295306;28;20495;-64
2021/10/10 11:45:10;;;;;;;27.90;15.00;;;;;;;;;;10279597;28;20041;-65
2021/10/10 11:50:25;;;;;;;17.23;9.53;;;;;;;;;;10271010;28;20079;-64
2021/10/10 11:55:27;;;;;;;24.98;10.15;;;;;;;;;;10269337;28;20061;-63
2021/10/10 12:00:26;;;;;;;34.17;15.60;;;;;;;;;;10272091;28;20524;-63
2021/10/10 12:05:26;;;;;;;34.72;16.60;;;;;;;;;;10281191;28;20072;-64
2021/10/10 12:10:26;;;;;;;16.88;11.15;;;;;;;;;;10278204;28;20493;-63
2021/10/10 12:15:25;;;;;;;27.55;14.20;;;;;;;;;;10291223;28;20131;-63
2021/10/10 12:20:25;;;;;;;28.58;8.63;;;;;;;;;;10281226;28;20041;-63
2021/10/10 12:25:26;;;;;;;21.42;9.55;;;;;;;;;;10272702;28;20076;-65
2021/10/10 12:30:25;;;;;;;20.58;9.27;;;;;;;;;;10272884;28;20076;-64
2021/10/10 12:35:24;;;;;;;22.60;11.00;;;;;;;;;;10287518;28;20080;-64
2021/10/10 12:40:28;;;;;;;19.23;11.32;;;;;;;;;;10280141;28;20045;-64
2021/10/10 12:45:31;;;;;;;22.92;9.73;;;;;;;;;;10272338;28;20076;-64
2021/10/10 12:50:33;;;;;;;16.13;8.07;;;;;;;;;;10271924;28;20521;-66
2021/10/10 12:55:33;;;;;;;27.50;9.63;;;;;;;;;;10274862;28;20477;-64
2021/10/10 13:00:31;;;;;;;25.88;9.00;;;;;;;;;;10287298;28;20041;-65
2021/10/10 13:05:31;;;;;;;24.60;9.77;;;;;;;;;;10275129;28;20072;-65
2021/10/10 13:10:30;;;;;;;51.58;24.90;;;;;;;;;;10284588;28;20091;-65
2021/10/10 13:15:29;;;;;;;34.67;12.77;;;;;;;;;;10296874;28;20053;-64
2021/10/10 13:20:28;;;;;;;22.65;12.00;;;;;;;;;;10278779;28;20056;-64
2021/10/10 13:25:26;;;;;;;22.95;11.13;;;;;;;;;;10280547;28;20072;-65
2021/10/10 13:30:26;;;;;;;25.45;7.20;;;;;;;;;;10288282;28;20096;-65
2021/10/10 13:35:26;;;;;;;29.10;8.85;;;;;;;;;;10279634;28;20509;-65
2021/10/10 13:40:24;;;;;;;21.40;8.25;;;;;;;;;;10276574;28;20060;-66
2021/10/10 13:50:36;;;;;;;21.63;11.98;;;;;;;;;;10279910;28;20099;-65
2021/10/10 13:55:34;;;;;;;19.63;7.75;;;;;;;;;;10284988;28;20072;-65
2021/10/10 14:00:33;;;;;;;21.00;10.18;;;;;;;;;;10279193;28;20080;-64
2021/10/10 14:07:45;;;;;;;21.63;12.13;;;;;;;;;;10400150;27;20131;-64
2021/10/10 14:12:43;;;;;;;18.02;9.55;;;;;;;;;;10376388;28;20556;-64
2021/10/10 14:17:42;;;;;;;21.05;12.02;;;;;;;;;;10370137;28;20075;-64
2021/10/10 14:22:40;;;;;;;31.70;14.50;;;;;;;;;;10368698;28;20083;-64
2021/10/10 14:27:40;;;;;;;27.40;9.27;;;;;;;;;;10369393;28;20088;-63
2021/10/10 14:32:38;;;;;;;22.60;10.48;;;;;;;;;;10369433;28;20527;-63
2021/10/10 14:37:37;;;;;;;26.98;12.68;;;;;;;;;;10367051;28;20075;-64
2021/10/10 14:42:38;;;;;;;16.92;9.82;;;;;;;;;;10361711;28;20052;-64
2021/10/10 14:52:49;;;;;;;17.02;9.88;;;;;;;;;;10351932;28;20080;-63
2021/10/10 14:57:50;;;;;;;15.45;9.07;;;;;;;;;;10350418;28;20076;-63
2021/10/10 15:02:50;;;;;;;17.50;9.00;;;;;;;;;;10355984;28;20075;-64
2021/10/10 15:07:53;;;;;;;27.42;8.85;;;;;;;;;;10380322;28;20078;-63
2021/10/10 15:12:52;;;;;;;24.15;12.63;;;;;;;;;;10386601;28;20067;-64
2021/10/10 15:17:52;;;;;;;31.00;18.27;;;;;;;;;;10365748;28;20473;-64
2021/10/10 15:22:51;;;;;;;19.00;11.88;;;;;;;;;;10361460;28;20068;-63
2021/10/10 15:27:50;;;;;;;23.65;15.43;;;;;;;;;;10354803;28;20082;-63
2021/10/10 15:32:48;;;;;;;28.42;12.75;;;;;;;;;;10340168;28;20095;-64
2021/10/10 15:37:48;;;;;;;23.67;13.18;;;;;;;;;;10354108;28;20525;-63
2021/10/10 15:42:46;;;;;;;24.48;11.73;;;;;;;;;;10359558;28;20114;-64
2021/10/10 15:47:44;;;;;;;22.73;16.73;;;;;;;;;;10347798;28;20067;-64
2021/10/10 15:52:44;;;;;;;22.40;13.38;;;;;;;;;;10326965;28;20117;-63
2021/10/10 15:57:47;;;;;;;26.45;15.55;;;;;;;;;;10350788;28;20079;-64
2021/10/10 16:02:46;;;;;;;20.85;11.30;;;;;;;;;;10358293;28;20071;-65
2021/10/10 16:07:45;;;;;;;18.30;10.82;;;;;;;;;;10331861;28;20064;-65
2021/10/10 16:12:43;;;;;;;27.73;13.38;;;;;;;;;;10325305;28;20063;-65
2021/10/10 16:17:44;;;;;;;34.03;18.92;;;;;;;;;;10343521;28;20437;-65
2021/10/10 16:22:43;;;;;;;39.90;21.00;;;;;;;;;;10319272;28;20530;-65
2021/10/10 16:27:41;;;;;;;25.45;15.38;;;;;;;;;;10353082;28;20075;-65
2021/10/10 16:32:46;;;;;;;30.73;17.15;;;;;;;;;;10357864;28;20480;-65
2021/10/10 16:37:48;;;;;;;;;;;;;;;;;;10348502;28;20523;-64
2021/10/10 16:42:48;;;;;;;21.23;11.48;;;;;;;;;;10348174;28;19948;-65
2021/10/10 16:47:46;;;;;;;24.33;12.13;;;;;;;;;;10352659;28;20064;-65
2021/10/10 16:52:45;;;;;;;28.38;14.57;;;;;;;;;;10348199;28;20068;-65
2021/10/10 16:57:44;;;;;;;29.20;15.50;;;;;;;;;;10332130;28;20075;-65
2021/10/10 17:02:43;;;;;;;22.85;13.70;;;;;;;;;;10355539;28;20072;-65
2021/10/10 17:07:42;;;;;;;21.63;13.32;;;;;;;;;;10352571;28;20496;-65
2021/10/10 17:12:41;;;;;;;25.77;12.15;;;;;;;;;;10348983;28;20448;-64
2021/10/10 17:17:39;;;;;;;27.63;14.93;;;;;;;;;;10337335;28;20060;-65
2021/10/10 17:22:39;;;;;;;39.80;24.73;;;;;;;;;;10337595;28;20072;-64
2021/10/10 17:27:37;;;;;;;46.83;31.30;;;;;;;;;;10329271;28;20512;-65
2021/10/10 17:32:36;;;;;;;51.30;28.65;;;;;;;;;;10331040;28;20068;-65
2021/10/10 17:37:34;;;;;;;48.88;27.13;;;;;;;;;;10347500;28;20488;-64
2021/10/10 17:42:34;;;;;;;41.67;28.00;;;;;;;;;;10355081;28;20036;-65
2021/10/10 17:47:32;;;;;;;102.22;65.18;;;;;;;;;;10353508;28;20074;-64
2021/10/10 17:52:30;;;;;;;69.72;43.85;;;;;;;;;;10353170;28;20086;-64
2021/10/10 17:57:29;;;;;;;30.80;22.63;;;;;;;;;;10328366;28;20064;-64
2021/10/10 18:13:30;;;;;;;41.33;24.90;;;;;;;;;;10210385;28;20077;-64
2021/10/10 18:18:30;;;;;;;99.55;52.55;;;;;;;;;;10303361;28;20091;-63
2021/10/10 18:23:28;;;;;;;102.57;60.70;;;;;;;;;;10345903;28;20044;-65
2021/10/10 18:28:27;;;;;;;65.55;37.65;;;;;;;;;;10332135;28;20075;-64
2021/10/10 18:33:26;;;;;;;38.78;20.85;;;;;;;;;;10330551;28;20513;-63
2021/10/10 18:38:26;;;;;;;51.63;26.85;;;;;;;;;;10333215;28;20067;-63
2021/10/10 18:43:25;;;;;;;47.05;26.38;;;;;;;;;;10334215;28;20068;-64
2021/10/10 18:48:23;;;;;;;51.75;29.65;;;;;;;;;;10334107;28;20095;-63
2021/10/10 18:53:21;;;;;;;23.88;14.45;;;;;;;;;;10335648;28;20421;-63
2021/10/10 18:58:21;;;;;;;27.48;14.35;;;;;;;;;;10342632;28;20071;-63
2021/10/10 19:03:19;;;;;;;20.65;12.55;;;;;;;;;;10328251;28;20095;-64
2021/10/10 19:08:19;;;;;;;24.27;12.95;;;;;;;;;;10328825;28;20158;-64
2021/10/10 19:13:17;;;;;;;24.45;10.93;;;;;;;;;;10335186;28;20087;-64
2021/10/10 19:18:17;;;;;;;14.85;10.93;;;;;;;;;;10340430;28;20429;-64
2021/10/10 19:23:16;;;;;;;20.88;10.30;;;;;;;;;;10340396;28;20520;-64
2021/10/10 19:28:14;;;;;;;22.15;10.07;;;;;;;;;;10332372;28;20076;-63
2021/10/10 19:33:12;;;;;;;18.63;11.00;;;;;;;;;;10331535;28;20086;-64
2021/10/10 19:38:12;;;;;;;16.50;10.35;;;;;;;;;;10344986;28;20091;-64
2021/10/10 19:43:10;;;;;;;18.67;10.38;;;;;;;;;;10356242;28;20449;-65
2021/10/10 19:48:10;;;;;;;36.15;13.10;;;;;;;;;;10346699;28;20076;-64
2021/10/10 19:53:08;;;;;;;17.75;10.45;;;;;;;;;;10330200;28;20063;-64
2021/10/10 19:58:08;;;;;;;19.27;11.60;;;;;;;;;;10337940;28;20079;-65
2021/10/10 20:03:10;;;;;;;21.30;12.27;;;;;;;;;;10345987;28;20106;-64
2021/10/10 20:08:13;;;;;;;24.63;12.60;;;;;;;;;;10352746;28;20082;-65
2021/10/10 20:13:13;;;;;;;19.60;13.02;;;;;;;;;;10355846;28;20079;-64
2021/10/10 20:18:11;;;;;;;28.50;12.25;;;;;;;;;;10346016;28;20472;-65
2021/10/10 20:23:10;;;;;;;22.48;11.25;;;;;;;;;;10343136;28;20051;-65
2021/10/10 20:28:08;;;;;;;22.85;11.55;;;;;;;;;;10356666;28;20072;-64
2021/10/10 20:33:11;;;;;;;30.70;12.75;;;;;;;;;;10341231;28;20079;-64
2021/10/10 20:38:09;;;;;;;26.48;11.88;;;;;;;;;;10347274;28;20064;-65
2021/10/10 20:43:08;;;;;;;20.50;10.18;;;;;;;;;;10342069;28;20075;-64
2021/10/10 20:48:08;;;;;;;20.13;11.20;;;;;;;;;;10339580;28;20076;-64
2021/10/10 20:53:06;;;;;;;18.38;9.27;;;;;;;;;;10356237;28;20071;-64
2021/10/10 20:58:05;;;;;;;24.27;10.63;;;;;;;;;;10356705;28;20063;-64
2021/10/10 21:03:03;;;;;;;23.77;9.40;;;;;;;;;;10323756;28;20067;-64
2021/10/10 21:08:03;;;;;;;16.83;10.57;;;;;;;;;;10323303;28;20470;-64
2021/10/10 21:13:02;;;;;;;18.95;9.48;;;;;;;;;;10331750;28;20137;-65
2021/10/10 21:18:00;;;;;;;23.63;10.73;;;;;;;;;;10335861;28;20501;-65
2021/10/10 21:22:59;;;;;;;16.50;11.70;;;;;;;;;;10338549;28;20072;-66
2021/10/10 21:28:02;;;;;;;24.33;13.32;;;;;;;;;;10319956;28;20368;-64
2021/10/10 21:33:12;;;;;;;26.33;13.05;;;;;;;;;;10342746;28;20414;-64
2021/10/10 21:38:10;;;;;;;30.88;12.93;;;;;;;;;;10336201;28;20051;-64
2021/10/10 21:43:10;;;;;;;20.05;12.52;;;;;;;;;;10350221;28;20159;-65
2021/10/10 21:48:08;;;;;;;25.38;13.52;;;;;;;;;;10350646;28;20480;-65
2021/10/10 21:53:07;;;;;;;21.75;11.25;;;;;;;;;;10350316;28;20073;-64
2021/10/10 21:58:05;;;;;;;16.52;9.80;;;;;;;;;;10349824;28;20418;-64
2021/10/10 22:03:06;;;;;;;15.98;9.93;;;;;;;;;;10351483;28;20048;-65
2021/10/10 22:08:04;;;;;;;17.55;10.73;;;;;;;;;;10337081;28;20091;-65
2021/10/10 22:13:03;;;;;;;20.02;12.50;;;;;;;;;;10348189;28;20067;-64
2021/10/10 22:18:02;;;;;;;32.63;19.23;;;;;;;;;;10326157;28;20438;-64
2021/10/10 22:23:06;;;;;;;23.98;13.52;;;;;;;;;;10318689;28;20040;-65
2021/10/10 22:30:19;;;;;;;24.20;12.23;;;;;;;;;;10356463;28;20075;-65
2021/10/10 22:33:26;;;;;;;21.63;12.30;;;;;;;;;;10357517;28;20442;-64
2021/10/10 22:38:26;;;;;;;24.48;12.27;;;;;;;;;;10359595;28;20075;-64
2021/10/10 22:43:24;;;;;;;25.73;11.07;;;;;;;;;;10358669;28;20528;-65
2021/10/10 22:48:23;;;;;;;15.82;10.75;;;;;;;;;;10359259;28;20085;-64
2021/10/10 22:53:21;;;;;;;14.45;10.43;;;;;;;;;;10352344;28;20040;-65
2021/10/10 22:58:21;;;;;;;18.92;12.43;;;;;;;;;;10351214;28;20493;-65
2021/10/10 23:03:19;;;;;;;22.95;13.70;;;;;;;;;;10356754;28;20559;-65
2021/10/10 23:08:17;;;;;;;22.10;11.57;;;;;;;;;;10357434;28;20083;-64
2021/10/10 23:13:16;;;;;;;25.48;12.07;;;;;;;;;;10356155;28;20162;-66
2021/10/10 23:18:18;;;;;;;31.52;12.68;;;;;;;;;;10356585;28;20059;-65
2021/10/10 23:23:16;;;;;;;19.52;11.52;;;;;;;;;;10343119;28;20141;-65
2021/10/10 23:28:14;;;;;;;24.33;13.93;;;;;;;;;;10343048;28;20080;-65
2021/10/10 23:33:12;;;;;;;21.90;13.55;;;;;;;;;;10357011;28;20409;-65
2021/10/10 23:38:12;;;;;;;25.70;13.18;;;;;;;;;;10356173;28;20485;-64
2021/10/10 23:43:11;;;;;;;23.13;11.70;;;;;;;;;;10355480;28;20512;-65
2021/10/10 23:48:09;;;;;;;25.30;12.90;;;;;;;;;;10340824;28;20075;-65
2021/10/10 23:53:07;;;;;;;21.70;11.77;;;;;;;;;;10352820;28;20067;-64
2021/10/10 23:58:07;;;;;;;24.10;13.93;;;;;;;;;;10353983;28;20051;-64
